Time;durP1;ratioP1;P1;durP2;ratioP2;P2;SDS_P1;SDS_P2;PMS_P1;PMS_P2;Temp;Humidity;BMP_temperature;BMP_pressure;BME280_temperature;BME280_humidity;BME280_pressure;Samples;Min_cycle;Max_cycle;Signal;HPM_P1;HPM_P2
2022/04/07 00:00:30;;;;;;;6.23;5.60;;;8.40;99.90;;;;;;5088166;28;20264;-86
2022/04/07 00:02:56;;;;;;;6.67;5.73;;;8.40;99.90;;;;;;5073934;28;20305;-87
2022/04/07 00:05:23;;;;;;;6.83;6.13;;;8.40;99.90;;;;;;5078949;28;20257;-88
2022/04/07 00:07:50;;;;;;;6.53;5.90;;;8.40;99.90;;;;;;5083910;28;20228;-87
2022/04/07 00:10:17;;;;;;;6.43;5.77;;;8.40;99.90;;;;;;5090423;28;20762;-86
2022/04/07 00:12:44;;;;;;;6.00;5.40;;;8.40;99.90;;;;;;5069714;28;20321;-87
2022/04/07 00:15:12;;;;;;;6.50;5.53;;;8.40;99.90;;;;;;5072256;28;20310;-85
2022/04/07 00:17:39;;;;;;;7.20;5.77;;;8.40;99.90;;;;;;5076646;28;20266;-84
2022/04/07 00:20:07;;;;;;;6.30;5.50;;;8.40;99.90;;;;;;5072449;28;20219;-84
2022/04/07 00:22:34;;;;;;;7.10;5.20;;;8.40;99.90;;;;;;5095957;28;20231;-83
2022/04/07 00:25:02;;;;;;;6.40;5.80;;;8.40;99.90;;;;;;5083528;28;20705;-83
2022/04/07 00:27:29;;;;;;;6.30;5.67;;;8.40;99.90;;;;;;5085699;28;20231;-84
2022/04/07 00:29:56;;;;;;;6.07;5.50;;;8.40;99.90;;;;;;5078542;28;20231;-85
2022/04/07 00:32:25;;;;;;;6.20;5.47;;;8.40;99.90;;;;;;5075549;28;20584;-84
2022/04/07 00:34:54;;;;;;;6.67;5.77;;;8.40;99.90;;;;;;5078109;28;20228;-84
2022/04/07 00:37:23;;;;;;;6.27;5.53;;;8.50;99.90;;;;;;5076801;28;20263;-86
2022/04/07 00:39:49;;;;;;;5.60;5.10;;;8.50;99.90;;;;;;5075765;28;20823;-85
2022/04/07 00:42:16;;;;;;;6.87;5.60;;;8.50;99.90;;;;;;5076403;28;20307;-85
2022/04/07 00:44:44;;;;;;;5.63;4.87;;;8.50;99.90;;;;;;5075648;28;20265;-85
2022/04/07 00:47:10;;;;;;;6.30;5.70;;;8.50;99.90;;;;;;5075247;28;20225;-85
2022/04/07 00:49:38;;;;;;;6.03;5.20;;;8.60;99.90;;;;;;5094642;28;20236;-85
2022/04/07 00:52:08;;;;;;;6.07;5.47;;;8.60;99.90;;;;;;5080382;28;20288;-85
2022/04/07 00:54:35;;;;;;;7.23;5.83;;;8.60;99.90;;;;;;5082760;28;20730;-85
2022/04/07 00:57:03;;;;;;;5.60;5.03;;;8.60;99.90;;;;;;5076438;28;20233;-84
2022/04/07 00:59:30;;;;;;;6.20;5.60;;;8.60;99.90;;;;;;5077081;28;20705;-84
2022/04/07 01:01:58;;;;;;;6.13;5.53;;;8.60;99.90;;;;;;5074882;28;20302;-84
2022/04/07 01:04:25;;;;;;;6.90;6.20;;;8.60;99.90;;;;;;5078023;28;20664;-86
2022/04/07 01:06:53;;;;;;;6.67;5.93;;;8.60;99.90;;;;;;5065566;28;20226;-86
2022/04/07 01:09:21;;;;;;;6.43;5.77;;;8.60;99.90;;;;;;5086540;28;20222;-85
2022/04/07 01:11:48;;;;;;;6.40;5.77;;;8.60;99.90;;;;;;5075728;28;20219;-87
2022/04/07 01:14:15;;;;;;;6.03;5.53;;;8.60;99.90;;;;;;5077401;28;20233;-85
2022/04/07 01:16:42;;;;;;;7.87;6.10;;;8.60;99.90;;;;;;5091589;28;20233;-84
2022/04/07 01:19:08;;;;;;;8.60;6.30;;;8.60;99.90;;;;;;5090982;28;20223;-86
2022/04/07 01:21:37;;;;;;;7.53;6.57;;;8.50;99.90;;;;;;5086708;28;20674;-84
2022/04/07 01:24:06;;;;;;;7.50;6.53;;;8.60;99.90;;;;;;5091391;28;20223;-86
2022/04/07 01:26:38;;;;;;;7.70;6.90;;;8.50;99.90;;;;;;5090050;28;20253;-84
2022/04/07 01:29:05;;;;;;;10.73;7.50;;;8.50;99.90;;;;;;5077649;28;20229;-86
2022/04/07 01:31:32;;;;;;;7.67;6.77;;;8.50;99.90;;;;;;5077634;28;20250;-86
2022/04/07 01:34:01;;;;;;;7.53;6.83;;;8.50;99.90;;;;;;5095529;28;20259;-85
2022/04/07 01:36:30;;;;;;;8.47;7.27;;;8.40;99.90;;;;;;5094614;28;21927;-86
2022/04/07 01:38:59;;;;;;;10.30;8.03;;;8.40;99.90;;;;;;5080170;28;20274;-83
2022/04/07 01:41:26;;;;;;;8.53;6.67;;;8.50;99.90;;;;;;5095372;28;20914;-86
2022/04/07 01:43:57;;;;;;;7.23;6.53;;;8.40;99.90;;;;;;5091667;28;20224;-86
2022/04/07 01:46:25;;;;;;;7.47;6.63;;;8.40;99.90;;;;;;5089748;28;20323;-86
2022/04/07 01:48:53;;;;;;;6.97;6.33;;;8.40;99.90;;;;;;5090877;28;20257;-87
2022/04/07 01:51:22;;;;;;;7.17;6.43;;;8.40;99.90;;;;;;5090086;28;20231;-86
2022/04/07 01:53:49;;;;;;;7.60;6.80;;;8.40;99.90;;;;;;5075784;28;20247;-87
2022/04/07 01:56:18;;;;;;;8.80;7.10;;;8.40;99.90;;;;;;5074783;28;20661;-85
2022/04/07 01:58:45;;;;;;;6.33;5.73;;;8.40;99.90;;;;;;5092433;28;20646;-85
2022/04/07 02:01:14;;;;;;;6.47;5.67;;;8.40;99.90;;;;;;5091545;28;20689;-85
2022/04/07 02:03:42;;;;;;;6.50;5.90;;;8.40;99.90;;;;;;5074958;28;20252;-85
2022/04/07 02:06:13;;;;;;;6.97;6.10;;;8.30;99.90;;;;;;5073526;28;20230;-86
2022/04/07 02:08:40;;;;;;;7.60;5.93;;;8.40;99.90;;;;;;5075409;28;20701;-87
2022/04/07 02:11:06;;;;;;;8.13;6.20;;;8.40;99.90;;;;;;5093220;28;20217;-86
2022/04/07 02:13:34;;;;;;;6.30;5.70;;;8.40;99.90;;;;;;5093798;28;20820;-84
2022/04/07 02:16:01;;;;;;;7.07;6.17;;;8.40;99.90;;;;;;5095104;28;20225;-84
2022/04/07 02:18:29;;;;;;;7.13;5.93;;;8.40;99.90;;;;;;5079443;28;20240;-84
2022/04/07 02:20:56;;;;;;;6.57;5.73;;;8.40;99.90;;;;;;5080393;28;20241;-85
2022/04/07 02:23:23;;;;;;;6.43;5.67;;;8.40;99.90;;;;;;5074024;28;20228;-84
2022/04/07 02:25:50;;;;;;;8.33;5.97;;;8.40;99.90;;;;;;5079164;28;20225;-86
2022/04/07 02:28:18;;;;;;;8.37;6.17;;;8.40;99.90;;;;;;5077982;28;20318;-83
2022/04/07 02:30:45;;;;;;;6.73;6.03;;;8.40;99.90;;;;;;5076115;28;20217;-85
2022/04/07 02:33:11;;;;;;;8.10;6.20;;;8.40;99.90;;;;;;5075727;28;20225;-84
2022/04/07 02:35:39;;;;;;;7.97;6.47;;;8.40;99.90;;;;;;5074222;28;20220;-84
2022/04/07 02:38:06;;;;;;;6.50;5.77;;;8.30;99.90;;;;;;5076299;28;20344;-83
2022/04/07 02:40:33;;;;;;;6.10;5.50;;;8.30;99.90;;;;;;5076516;28;20366;-83
2022/04/07 02:43:00;;;;;;;6.23;5.63;;;8.30;99.90;;;;;;5092135;28;20232;-87
2022/04/07 02:45:27;;;;;;;6.47;5.80;;;8.30;99.90;;;;;;5075480;28;20241;-85
2022/04/07 02:47:54;;;;;;;7.10;6.40;;;8.30;99.90;;;;;;5075183;28;20225;-85
2022/04/07 02:50:21;;;;;;;7.77;6.00;;;8.30;99.90;;;;;;5088186;28;20436;-85
2022/04/07 02:52:49;;;;;;;6.17;5.57;;;8.30;99.90;;;;;;5087477;28;20235;-85
2022/04/07 02:55:16;;;;;;;6.60;5.47;;;8.40;99.90;;;;;;5073360;28;20232;-85
2022/04/07 02:57:42;;;;;;;7.73;6.10;;;8.40;99.90;;;;;;5069960;28;20218;-86
2022/04/07 03:00:10;;;;;;;6.80;6.20;;;8.30;99.90;;;;;;5070099;28;20229;-86
2022/04/07 03:02:37;;;;;;;7.87;6.20;;;8.40;99.90;;;;;;5082638;28;20231;-87
2022/04/07 03:05:04;;;;;;;7.90;6.80;;;8.40;99.90;;;;;;5087723;28;20274;-85
2022/04/07 03:07:31;;;;;;;9.93;7.00;;;8.30;99.90;;;;;;5070162;28;21396;-88
2022/04/07 03:09:59;;;;;;;9.77;8.00;;;8.30;99.90;;;;;;5072597;28;20314;-85
2022/04/07 03:12:25;;;;;;;10.17;7.93;;;8.30;99.90;;;;;;5068508;28;20288;-86
2022/04/07 03:14:52;;;;;;;10.33;7.83;;;8.20;99.90;;;;;;5073257;28;20242;-87
2022/04/07 03:17:19;;;;;;;11.63;9.17;;;8.20;99.90;;;;;;5087894;28;20653;-86
2022/04/07 03:19:45;;;;;;;9.73;8.73;;;8.10;99.90;;;;;;5089546;28;20223;-88
2022/04/07 03:22:12;;;;;;;10.40;8.90;;;8.10;99.90;;;;;;5071334;28;20306;-86
2022/04/07 03:24:39;;;;;;;9.67;8.67;;;8.10;99.90;;;;;;5086054;28;20258;-85
2022/04/07 03:27:08;;;;;;;9.53;8.53;;;8.00;99.90;;;;;;5071852;28;20798;-88
2022/04/07 03:29:35;;;;;;;11.00;9.07;;;8.00;99.90;;;;;;5073556;28;20552;-86
2022/04/07 03:32:04;;;;;;;9.87;8.87;;;8.00;99.90;;;;;;5072247;28;20339;-85
2022/04/07 03:34:31;;;;;;;10.10;8.60;;;8.00;99.90;;;;;;5074956;28;20870;-85
2022/04/07 03:36:58;;;;;;;11.67;8.70;;;8.00;99.90;;;;;;5072098;28;20224;-86
2022/04/07 03:39:24;;;;;;;10.20;8.17;;;8.00;99.90;;;;;;5089796;28;20753;-86
2022/04/07 03:41:51;;;;;;;10.50;8.43;;;8.00;99.90;;;;;;5071410;28;20696;-87
2022/04/07 03:44:19;;;;;;;9.20;8.20;;;8.00;99.90;;;;;;5089044;28;20222;-84
2022/04/07 03:46:46;;;;;;;10.10;8.03;;;8.00;99.90;;;;;;5069928;28;20227;-87
2022/04/07 03:49:12;;;;;;;8.77;7.63;;;8.10;99.90;;;;;;5085990;28;20721;-88
2022/04/07 03:51:39;;;;;;;8.77;7.50;;;8.10;99.90;;;;;;5071065;28;20829;-85
2022/04/07 03:54:06;;;;;;;7.90;7.10;;;8.10;99.90;;;;;;5091346;28;20594;-84
2022/04/07 03:56:34;;;;;;;8.40;7.20;;;8.10;99.90;;;;;;5070151;28;20222;-85
2022/04/07 03:59:00;;;;;;;7.43;6.73;;;8.20;99.90;;;;;;5073158;28;20232;-86
2022/04/07 04:01:29;;;;;;;7.03;6.33;;;8.20;99.90;;;;;;5073563;28;20282;-84
2022/04/07 04:03:56;;;;;;;7.40;6.60;;;8.20;99.90;;;;;;5062667;28;20235;-84
2022/04/07 04:06:23;;;;;;;6.53;5.93;;;8.30;99.90;;;;;;5088472;28;20289;-86
2022/04/07 04:08:50;;;;;;;7.63;6.00;;;8.30;99.90;;;;;;5070153;28;20589;-85
2022/04/07 04:11:18;;;;;;;7.13;5.80;;;8.30;99.90;;;;;;5077799;28;20264;-85
2022/04/07 04:13:45;;;;;;;7.17;5.57;;;8.30;99.90;;;;;;5071429;28;20256;-84
2022/04/07 04:16:14;;;;;;;8.33;6.23;;;8.30;99.90;;;;;;5078557;28;20224;-86
2022/04/07 04:18:43;;;;;;;8.67;5.67;;;8.30;99.90;;;;;;5082060;28;20225;-87
2022/04/07 04:21:09;;;;;;;6.90;5.23;;;8.40;99.90;;;;;;5076603;28;20220;-87
2022/04/07 04:23:38;;;;;;;6.63;5.00;;;8.40;99.90;;;;;;5090828;28;20229;-87
2022/04/07 04:26:05;;;;;;;5.63;4.90;;;8.40;99.90;;;;;;5090235;28;20912;-85
2022/04/07 04:28:31;;;;;;;7.63;5.03;;;8.40;99.90;;;;;;5079843;28;20224;-85
2022/04/07 04:30:58;;;;;;;8.20;5.37;;;8.40;99.90;;;;;;5095536;28;20266;-86
2022/04/07 04:33:25;;;;;;;5.70;4.90;;;8.50;99.90;;;;;;5075911;28;20662;-83
2022/04/07 04:35:53;;;;;;;5.83;5.20;;;8.50;99.90;;;;;;5096009;28;20312;-84
2022/04/07 04:38:20;;;;;;;6.93;5.20;;;8.50;99.90;;;;;;5078509;28;20224;-82
2022/04/07 04:40:46;;;;;;;6.03;4.83;;;8.50;99.90;;;;;;5079288;28;20225;-84
2022/04/07 04:43:13;;;;;;;5.77;5.10;;;8.50;99.90;;;;;;5081603;28;20306;-84
2022/04/07 04:45:40;;;;;;;5.50;4.73;;;8.50;99.90;;;;;;5080519;28;20232;-83
2022/04/07 04:48:07;;;;;;;5.73;4.83;;;8.50;99.90;;;;;;5083266;28;20256;-83
2022/04/07 04:50:34;;;;;;;5.77;5.17;;;8.50;99.90;;;;;;5073674;28;20317;-84
2022/04/07 04:53:02;;;;;;;6.57;5.10;;;8.50;99.90;;;;;;5077405;28;20285;-83
2022/04/07 04:55:29;;;;;;;5.70;5.20;;;8.50;99.90;;;;;;5097850;28;20319;-83
2022/04/07 04:57:56;;;;;;;6.33;5.13;;;8.50;99.90;;;;;;5079900;28;20223;-84
2022/04/07 05:00:22;;;;;;;6.50;5.73;;;8.50;99.90;;;;;;5097025;28;20263;-83
2022/04/07 05:02:49;;;;;;;5.97;5.37;;;8.50;99.90;;;;;;5097703;28;20250;-83
2022/04/07 05:05:16;;;;;;;6.87;5.67;;;8.50;99.90;;;;;;5095719;28;20300;-85
2022/04/07 05:07:43;;;;;;;6.33;5.53;;;8.50;99.90;;;;;;5076020;28;20250;-85
2022/04/07 05:10:11;;;;;;;6.67;5.40;;;8.50;99.90;;;;;;5086113;28;20229;-84
2022/04/07 05:12:38;;;;;;;8.07;5.63;;;8.40;99.90;;;;;;5079025;28;20558;-85
2022/04/07 05:15:06;;;;;;;8.00;6.20;;;8.50;99.90;;;;;;5077599;28;20220;-86
2022/04/07 05:17:33;;;;;;;7.90;6.07;;;8.40;99.90;;;;;;5075094;28;20239;-84
2022/04/07 05:20:00;;;;;;;8.30;6.20;;;8.40;99.90;;;;;;5074050;28;20318;-83
2022/04/07 05:22:26;;;;;;;7.67;6.10;;;8.40;99.90;;;;;;5091341;28;21018;-86
2022/04/07 05:24:53;;;;;;;6.93;6.33;;;8.40;99.90;;;;;;5083492;28;20226;-86
2022/04/07 05:27:21;;;;;;;7.03;5.63;;;8.30;99.90;;;;;;5072693;28;20997;-86
2022/04/07 05:29:48;;;;;;;6.70;5.73;;;8.40;99.90;;;;;;5073565;28;20295;-86
2022/04/07 05:32:14;;;;;;;6.93;5.53;;;8.30;99.90;;;;;;5079055;28;20220;-87
2022/04/07 05:34:41;;;;;;;6.57;5.87;;;8.30;99.90;;;;;;5073771;28;20313;-82
2022/04/07 05:37:08;;;;;;;6.93;5.50;;;8.30;99.90;;;;;;5071985;28;20220;-84
2022/04/07 05:39:35;;;;;;;5.73;5.17;;;8.30;99.90;;;;;;5085967;28;20225;-85
2022/04/07 05:42:01;;;;;;;7.03;4.63;;;8.30;99.90;;;;;;5073241;28;20229;-86
2022/04/07 05:44:29;;;;;;;5.43;4.93;;;8.40;99.90;;;;;;5070599;28;20233;-86
2022/04/07 05:46:56;;;;;;;4.90;4.10;;;8.40;99.90;;;;;;5068933;28;20226;-86
2022/04/07 05:49:23;;;;;;;5.73;4.03;;;8.40;99.90;;;;;;5067629;28;20341;-85
2022/04/07 05:51:54;;;;;;;4.77;4.10;;;8.40;99.90;;;;;;5087138;28;20224;-86
2022/04/07 05:54:21;;;;;;;6.80;4.57;;;8.50;99.90;;;;;;5069201;28;20323;-86
2022/04/07 05:56:48;;;;;;;4.97;4.50;;;8.50;99.90;;;;;;5089939;28;20237;-85
2022/04/07 05:59:15;;;;;;;5.10;4.43;;;8.50;99.90;;;;;;5087130;28;20228;-85
2022/04/07 06:01:43;;;;;;;4.33;3.90;;;8.50;99.90;;;;;;5076198;28;20238;-83
2022/04/07 06:04:10;;;;;;;6.70;4.20;;;8.50;99.90;;;;;;5088000;28;20228;-87
2022/04/07 06:06:36;;;;;;;4.27;3.87;;;8.50;99.90;;;;;;5080410;28;20230;-86
2022/04/07 06:09:03;;;;;;;4.33;3.57;;;8.50;99.90;;;;;;5070866;28;20227;-89
2022/04/07 06:11:30;;;;;;;4.73;3.70;;;8.50;99.90;;;;;;5083041;28;20756;-87
2022/04/07 06:13:57;;;;;;;4.50;3.70;;;8.50;99.90;;;;;;5087307;28;20407;-88
2022/04/07 06:16:23;;;;;;;5.33;4.30;;;8.40;99.90;;;;;;5084717;28;20228;-86
2022/04/07 06:18:52;;;;;;;4.90;4.30;;;8.40;99.90;;;;;;5090246;28;20223;-87
2022/04/07 06:21:19;;;;;;;4.90;4.30;;;8.40;99.90;;;;;;5089238;28;20224;-89
2022/04/07 06:23:46;;;;;;;5.30;4.50;;;8.40;99.90;;;;;;5070511;28;20235;-88
2022/04/07 06:26:13;;;;;;;7.23;4.83;;;8.30;99.90;;;;;;5073382;28;20222;-87
2022/04/07 06:28:41;;;;;;;5.30;4.77;;;8.30;99.90;;;;;;5082188;28;20256;-86
2022/04/07 06:31:08;;;;;;;5.30;4.80;;;8.30;99.90;;;;;;5088267;28;20217;-87
2022/04/07 06:33:35;;;;;;;5.23;4.73;;;8.40;99.90;;;;;;5082214;28;20249;-88
2022/04/07 06:36:04;;;;;;;5.60;5.10;;;8.40;99.90;;;;;;5070027;28;20220;-87
2022/04/07 06:38:31;;;;;;;5.90;5.30;;;8.40;99.90;;;;;;5089486;28;20797;-87
2022/04/07 06:40:58;;;;;;;7.07;4.90;;;8.40;99.90;;;;;;5088260;28;20499;-88
2022/04/07 06:43:25;;;;;;;7.03;5.10;;;8.40;99.90;;;;;;5077347;28;20224;-87
2022/04/07 06:45:52;;;;;;;5.93;4.50;;;8.40;99.90;;;;;;5088077;28;20237;-89
2022/04/07 06:48:19;;;;;;;6.77;5.03;;;8.50;99.90;;;;;;5069787;28;20285;-86
2022/04/07 06:50:45;;;;;;;6.10;4.90;;;8.50;99.90;;;;;;5070317;28;20327;-88
2022/04/07 06:53:14;;;;;;;6.60;4.70;;;8.50;99.90;;;;;;5057220;28;20257;-87
2022/04/07 06:55:40;;;;;;;7.63;4.13;;;8.60;99.90;;;;;;5056804;28;20650;-89
2022/04/07 06:58:10;;;;;;;6.63;4.40;;;8.70;99.90;;;;;;5085828;28;20227;-84
2022/04/07 07:00:43;;;;;;;7.23;4.17;;;8.70;99.90;;;;;;5073189;28;20290;-88
2022/04/07 07:03:10;;;;;;;5.67;3.83;;;8.80;99.90;;;;;;5069172;28;20226;-88
2022/04/07 07:05:37;;;;;;;5.67;4.37;;;9.00;99.90;;;;;;5085384;28;20232;-87
2022/04/07 07:08:15;;;;;;;6.83;4.10;;;8.90;99.90;;;;;;5073158;28;20217;-88
2022/04/07 07:10:44;;;;;;;5.80;3.70;;;9.00;99.90;;;;;;5068095;28;20233;-82
2022/04/07 07:13:10;;;;;;;5.80;3.87;;;9.00;99.90;;;;;;5083905;28;20240;-86
2022/04/07 07:15:37;;;;;;;6.70;3.90;;;9.10;99.90;;;;;;5085557;28;20234;-83
2022/04/07 07:18:04;;;;;;;7.77;3.87;;;9.10;99.90;;;;;;5087240;28;20287;-80
2022/04/07 07:20:31;;;;;;;7.60;3.93;;;9.10;99.90;;;;;;5087020;28;20652;-82
2022/04/07 07:22:58;;;;;;;6.60;3.33;;;9.10;99.90;;;;;;5082176;28;20316;-79
2022/04/07 07:25:27;;;;;;;4.37;3.30;;;9.10;99.90;;;;;;5086234;28;20593;-83
2022/04/07 07:27:54;;;;;;;7.57;3.83;;;9.00;99.90;;;;;;5086378;28;20228;-81
2022/04/07 07:30:21;;;;;;;6.70;3.50;;;9.00;99.90;;;;;;5085646;28;20217;-81
2022/04/07 07:32:49;;;;;;;7.37;3.60;;;9.00;99.90;;;;;;5081040;28;20236;-81
2022/04/07 07:35:18;;;;;;;6.23;3.33;;;9.00;99.90;;;;;;5084888;28;20219;-82
2022/04/07 07:37:49;;;;;;;5.43;3.00;;;9.00;99.90;;;;;;5063710;28;20227;-81
2022/04/07 07:40:16;;;;;;;4.10;2.77;;;9.00;99.90;;;;;;5084916;28;20320;-82
2022/04/07 07:42:45;;;;;;;7.00;3.40;;;9.00;99.90;;;;;;5074176;28;20231;-82
2022/04/07 07:45:12;;;;;;;7.00;3.20;;;9.00;99.90;;;;;;5085435;28;20241;-82
2022/04/07 07:47:38;;;;;;;6.13;2.97;;;9.00;99.90;;;;;;5064106;28;20231;-81
2022/04/07 07:50:06;;;;;;;5.97;2.90;;;8.90;99.90;;;;;;5076207;28;20371;-82
2022/04/07 07:52:33;;;;;;;5.10;2.73;;;8.90;99.90;;;;;;5071478;28;20348;-83
2022/04/07 07:55:01;;;;;;;4.50;2.90;;;8.90;99.90;;;;;;5090398;28;20225;-83
2022/04/07 07:57:28;;;;;;;5.93;3.00;;;8.90;99.90;;;;;;5088974;28;20316;-83
2022/04/07 07:59:57;;;;;;;4.97;3.17;;;8.80;99.90;;;;;;5072930;28;20222;-83
2022/04/07 08:02:24;;;;;;;5.30;2.90;;;8.80;99.90;;;;;;5090558;28;20267;-84
2022/04/07 08:04:51;;;;;;;4.73;3.30;;;8.70;99.90;;;;;;5072598;28;20592;-83
2022/04/07 08:07:18;;;;;;;5.03;2.60;;;8.60;99.90;;;;;;5089901;28;20236;-82
2022/04/07 08:09:45;;;;;;;5.43;2.83;;;8.60;99.90;;;;;;5077931;28;20328;-82
2022/04/07 08:12:12;;;;;;;8.33;3.60;;;8.50;99.90;;;;;;5087011;28;20228;-82
2022/04/07 08:14:39;;;;;;;6.43;3.27;;;8.40;99.90;;;;;;5090638;28;20654;-83
2022/04/07 08:17:07;;;;;;;4.83;2.90;;;8.30;99.90;;;;;;5067669;28;20278;-82
2022/04/07 08:19:36;;;;;;;8.10;3.40;;;8.30;99.90;;;;;;5089302;28;20241;-82
2022/04/07 08:22:03;;;;;;;6.67;2.97;;;8.30;99.90;;;;;;5074569;28;20229;-82
2022/04/07 08:24:30;;;;;;;10.67;3.37;;;8.20;99.90;;;;;;5093127;28;20297;-81
2022/04/07 08:26:56;;;;;;;6.40;3.67;;;8.30;99.90;;;;;;5093034;28;20248;-83
2022/04/07 08:29:23;;;;;;;5.23;2.80;;;8.20;99.90;;;;;;5091820;28;20243;-82
2022/04/07 08:31:52;;;;;;;8.60;3.33;;;8.20;99.90;;;;;;5094027;28;20219;-83
2022/04/07 08:34:20;;;;;;;6.23;2.83;;;8.10;99.90;;;;;;5093739;28;20243;-83
2022/04/07 08:36:47;;;;;;;8.27;2.80;;;8.10;99.90;;;;;;5094517;28;20291;-84
2022/04/07 08:39:14;;;;;;;6.37;2.90;;;8.10;99.90;;;;;;5077259;28;20321;-83
2022/04/07 08:41:42;;;;;;;8.67;3.03;;;8.10;99.90;;;;;;5095114;28;20310;-83
2022/04/07 08:44:09;;;;;;;4.03;2.97;;;8.10;99.90;;;;;;5078620;28;20252;-82
2022/04/07 08:46:36;;;;;;;4.63;2.33;;;8.10;99.90;;;;;;5097649;28;20231;-83
2022/04/07 08:49:04;;;;;;;5.33;2.60;;;8.10;99.90;;;;;;5079312;28;20276;-83
2022/04/07 08:51:33;;;;;;;7.30;2.93;;;8.10;99.90;;;;;;5078238;28;20277;-82
2022/04/07 08:54:00;;;;;;;4.83;2.80;;;8.00;99.90;;;;;;5078425;28;20307;-83
2022/04/07 08:56:28;;;;;;;6.57;2.80;;;8.10;99.90;;;;;;5068864;28;20262;-82
2022/04/07 08:58:56;;;;;;;5.57;2.63;;;8.10;99.90;;;;;;5080426;28;20249;-83
2022/04/07 09:01:23;;;;;;;6.90;2.90;;;8.00;99.90;;;;;;5096415;28;20227;-83
2022/04/07 09:03:49;;;;;;;6.00;2.37;;;8.00;99.90;;;;;;5095738;28;20244;-83
2022/04/07 09:06:17;;;;;;;3.73;2.10;;;7.90;99.90;;;;;;5094869;28;20242;-83
2022/04/07 09:08:45;;;;;;;6.37;2.50;;;7.90;99.90;;;;;;5078295;28;20230;-83
2022/04/07 09:11:12;;;;;;;5.07;2.17;;;8.00;99.90;;;;;;5078931;28;20233;-83
2022/04/07 09:13:41;;;;;;;6.47;2.30;;;7.90;99.90;;;;;;5078656;28;20311;-83
2022/04/07 09:16:12;;;;;;;1.73;0.90;;;7.90;99.90;;;;;;5097630;28;20233;-82
2022/04/07 09:18:39;;;;;;;1.80;0.97;;;7.90;99.90;;;;;;5080738;28;20227;-83
2022/04/07 09:21:07;;;;;;;2.43;0.90;;;7.80;99.90;;;;;;5070620;28;20219;-83
2022/04/07 09:23:38;;;;;;;2.63;0.60;;;7.70;99.90;;;;;;5078360;28;20259;-85
2022/04/07 09:26:11;;;;;;;1.43;0.70;;;7.50;99.90;;;;;;5091954;28;20222;-86
2022/04/07 09:28:37;;;;;;;1.33;0.67;;;7.40;99.90;;;;;;5096942;28;20631;-85
2022/04/07 09:31:04;;;;;;;2.17;0.90;;;7.20;99.90;;;;;;5097460;28;20220;-86
2022/04/07 09:33:31;;;;;;;1.57;0.60;;;7.00;99.90;;;;;;5078375;28;20315;-84
2022/04/07 09:36:00;;;;;;;1.03;0.63;;;6.90;99.90;;;;;;5085465;28;20731;-85
2022/04/07 09:38:27;;;;;;;6.23;0.70;;;6.80;99.90;;;;;;5072447;28;20254;-84
2022/04/07 09:41:02;;;;;;;1.43;0.57;;;6.60;99.90;;;;;;5092982;28;20250;-85
2022/04/07 09:43:41;;;;;;;3.23;0.70;;;6.50;99.90;;;;;;5087035;28;20302;-83
2022/04/07 09:46:09;;;;;;;1.93;0.70;;;6.40;99.90;;;;;;5079231;28;20231;-83
2022/04/07 09:48:37;;;;;;;3.50;0.60;;;6.40;99.90;;;;;;5083886;28;20326;-83
2022/04/07 09:51:05;;;;;;;2.90;0.93;;;6.30;99.90;;;;;;5076689;28;20233;-83
2022/04/07 09:53:37;;;;;;;1.67;0.60;;;6.20;99.90;;;;;;5101264;28;20284;-83
2022/04/07 09:56:06;;;;;;;2.27;0.70;;;6.20;99.90;;;;;;5100559;28;20247;-83
2022/04/07 09:58:35;;;;;;;1.57;0.70;;;6.20;99.90;;;;;;5082451;28;20258;-84
2022/04/07 10:01:03;;;;;;;2.97;0.70;;;6.10;99.90;;;;;;5081761;28;20873;-83
2022/04/07 10:03:31;;;;;;;1.40;0.53;;;6.20;99.90;;;;;;5087935;28;20228;-83
2022/04/07 10:05:59;;;;;;;2.37;0.60;;;6.10;99.90;;;;;;5078970;28;20240;-84
2022/04/07 10:08:29;;;;;;;2.77;0.67;;;6.00;99.90;;;;;;5085249;28;20233;-83
2022/04/07 10:10:59;;;;;;;1.60;0.70;;;6.10;99.90;;;;;;5100136;28;20255;-83
2022/04/07 10:13:30;;;;;;;2.67;1.00;;;6.10;99.90;;;;;;5075121;28;20238;-83
2022/04/07 10:15:59;;;;;;;3.70;0.73;;;6.10;99.90;;;;;;5089235;28;20312;-83
2022/04/07 10:18:32;;;;;;;2.00;0.80;;;6.00;99.90;;;;;;5099679;28;20319;-83
2022/04/07 10:21:00;;;;;;;0.83;0.70;;;5.90;99.90;;;;;;5082078;28;20237;-83
2022/04/07 10:23:46;;;;;;;1.97;0.80;;;6.00;99.90;;;;;;5087099;28;20248;-85
2022/04/07 10:26:15;;;;;;;2.37;0.80;;;5.90;99.90;;;;;;5076536;28;20669;-84
2022/04/07 10:28:42;;;;;;;1.90;0.67;;;5.90;99.90;;;;;;5099784;28;20233;-83
2022/04/07 10:31:15;;;;;;;1.03;0.60;;;5.90;99.90;;;;;;5098930;28;20364;-85
2022/04/07 10:33:44;;;;;;;0.73;0.50;;;5.90;99.90;;;;;;5100174;28;20228;-84
2022/04/07 10:36:17;;;;;;;1.80;0.67;;;5.90;99.90;;;;;;5077613;28;20231;-83
2022/04/07 10:38:47;;;;;;;1.83;0.60;;;5.80;99.90;;;;;;5080204;28;20318;-83
2022/04/07 10:41:50;;;;;;;2.43;0.80;;;5.90;99.90;;;;;;5098755;28;20236;-83
2022/04/07 10:44:19;;;;;;;2.97;0.90;;;5.80;99.90;;;;;;5097257;28;20236;-83
2022/04/07 10:46:47;;;;;;;0.83;0.70;;;5.70;99.90;;;;;;5095939;28;20225;-83
2022/04/07 10:49:22;;;;;;;4.17;0.90;;;5.70;99.90;;;;;;5079240;28;20233;-83
2022/04/07 10:51:55;;;;;;;1.73;0.80;;;5.70;99.90;;;;;;5097269;28;20301;-83
2022/04/07 10:54:22;;;;;;;2.13;0.83;;;5.60;99.90;;;;;;5087472;28;20704;-83
2022/04/07 10:56:51;;;;;;;1.03;0.70;;;5.60;99.90;;;;;;5081686;28;20231;-84
2022/04/07 10:59:21;;;;;;;4.80;0.87;;;5.50;99.90;;;;;;5097660;28;20224;-84
2022/04/07 11:02:00;;;;;;;1.93;0.70;;;5.50;99.90;;;;;;5096358;28;20228;-84
2022/04/07 11:05:13;;;;;;;2.27;0.67;;;5.20;99.90;;;;;;5094834;28;20234;-83
2022/04/07 11:07:52;;;;;;;2.13;0.60;;;5.20;99.90;;;;;;5038233;28;20232;-83
2022/04/07 11:10:43;;;;;;;2.00;0.60;;;5.10;99.90;;;;;;5078191;28;20255;-84
2022/04/07 11:13:10;;;;;;;1.07;0.80;;;5.10;99.90;;;;;;5092503;28;20305;-85
2022/04/07 11:15:49;;;;;;;1.13;0.67;;;5.00;99.90;;;;;;5095647;28;20237;-86
2022/04/07 11:18:52;;;;;;;0.93;0.60;;;4.90;99.90;;;;;;5092627;28;20327;-87
2022/04/07 11:21:19;;;;;;;2.37;0.60;;;4.90;99.90;;;;;;5033001;28;20354;-85
2022/04/07 11:23:52;;;;;;;1.10;0.70;;;4.90;99.90;;;;;;5066602;28;20230;-85
2022/04/07 11:26:21;;;;;;;1.50;0.90;;;4.90;99.90;;;;;;5077735;28;20223;-86
2022/04/07 11:29:10;;;;;;;1.77;0.80;;;4.90;99.90;;;;;;5075628;28;20277;-85
2022/04/07 11:31:41;;;;;;;6.57;1.40;;;4.90;99.90;;;;;;5092022;28;20234;-84
2022/04/07 11:34:42;;;;;;;516.47;34.90;;;5.00;99.90;;;;;;5092146;28;20733;-85
2022/04/07 11:37:10;;;;;;;31.50;3.20;;;5.30;99.90;;;;;;5087665;28;20221;-86
2022/04/07 11:39:40;;;;;;;25.73;2.40;;;5.70;99.90;;;;;;5083007;28;20462;-84
2022/04/07 11:42:07;;;;;;;15.57;2.00;;;6.20;99.90;;;;;;5086715;28;20230;-84
2022/04/07 11:44:34;;;;;;;2.17;0.90;;;6.60;99.90;;;;;;5092778;28;20234;-83
2022/04/07 11:47:01;;;;;;;9.63;1.50;;;7.10;99.90;;;;;;5074882;28;20333;-83
2022/04/07 11:49:29;;;;;;;5.80;1.30;;;7.50;99.90;;;;;;5088388;28;20803;-83
2022/04/07 11:51:57;;;;;;;6.47;1.07;;;7.90;99.90;;;;;;5073557;28;20235;-84
2022/04/07 11:54:24;;;;;;;7.53;1.10;;;8.20;99.90;;;;;;5069046;28;20313;-83
2022/04/07 11:56:52;;;;;;;3.90;1.00;;;8.70;99.90;;;;;;5092618;28;20217;-83
2022/04/07 11:59:20;;;;;;;1.80;1.10;;;9.10;99.90;;;;;;5068924;28;20228;-83
2022/04/07 12:01:47;;;;;;;1.83;1.00;;;9.40;99.90;;;;;;5075941;28;20278;-84
2022/04/07 12:04:15;;;;;;;2.40;1.13;;;9.70;99.90;;;;;;5070940;28;20233;-83
2022/04/07 12:06:44;;;;;;;2.70;0.97;;;9.90;99.90;;;;;;5089268;28;20694;-83
2022/04/07 12:09:12;;;;;;;3.50;1.20;;;10.00;99.90;;;;;;5065986;28;20717;-84
2022/04/07 12:11:40;;;;;;;2.73;1.20;;;10.00;99.90;;;;;;5085579;28;20315;-84
2022/04/07 12:14:10;;;;;;;2.27;1.10;;;10.10;99.90;;;;;;5088557;28;20291;-84
2022/04/07 12:16:44;;;;;;;3.80;0.97;;;10.10;99.90;;;;;;5085290;28;21007;-84
2022/04/07 12:19:11;;;;;;;3.40;1.23;;;10.10;99.90;;;;;;5084946;28;20230;-84
2022/04/07 12:21:52;;;;;;;2.53;1.07;;;10.10;99.90;;;;;;5088592;28;20241;-86
2022/04/07 12:24:21;;;;;;;2.33;1.27;;;10.00;99.90;;;;;;5082667;28;20238;-84
2022/04/07 12:26:49;;;;;;;3.30;1.60;;;10.00;99.90;;;;;;5088666;28;20312;-84
2022/04/07 12:29:17;;;;;;;2.97;1.33;;;10.00;99.90;;;;;;5087950;28;20222;-84
2022/04/07 12:31:45;;;;;;;2.80;1.33;;;9.90;99.90;;;;;;5072257;28;20256;-85
2022/04/07 12:34:13;;;;;;;3.20;1.20;;;9.90;99.90;;;;;;5069738;28;20246;-84
2022/04/07 12:36:41;;;;;;;1.70;1.03;;;10.00;99.90;;;;;;5073703;28;20231;-84
2022/04/07 12:39:20;;;;;;;2.70;1.43;;;10.00;99.90;;;;;;5091498;28;20229;-84
2022/04/07 12:41:51;;;;;;;3.13;1.47;;;10.10;99.90;;;;;;5080167;28;20229;-86
2022/04/07 12:44:21;;;;;;;2.17;1.20;;;10.20;99.90;;;;;;5077544;28;20246;-84
2022/04/07 12:46:50;;;;;;;2.80;1.10;;;10.30;99.90;;;;;;5078490;28;20592;-83
2022/04/07 12:49:24;;;;;;;3.87;1.53;;;10.30;99.90;;;;;;5092096;28;20236;-83
2022/04/07 12:52:05;;;;;;;2.93;1.40;;;10.40;99.90;;;;;;5078969;28;20797;-84
2022/04/07 12:54:31;;;;;;;2.23;1.00;;;10.60;99.90;;;;;;5074561;28;20233;-84
2022/04/07 12:57:13;;;;;;;4.67;0.90;;;10.80;99.70;;;;;;5076679;28;20598;-84
2022/04/07 12:59:58;;;;;;;3.40;1.03;;;10.80;99.10;;;;;;5079621;28;20230;-84
2022/04/07 13:02:26;;;;;;;4.40;1.03;;;11.00;99.00;;;;;;5072351;28;20515;-84